createdAt,value
2023-02-22T00:01:35.929Z,53.13
2023-02-22T00:04:05.693Z,54.20
2023-02-22T00:06:33.356Z,53.95
2023-02-22T00:09:02.365Z,48.97
2023-02-22T00:11:31.454Z,50.45
2023-02-22T00:13:58.512Z,54.38
2023-02-22T00:16:26.640Z,52.03
2023-02-22T00:18:54.353Z,52.95
2023-02-22T00:21:22.312Z,50.17
2023-02-22T00:23:50.021Z,53.33
2023-02-22T00:26:19.998Z,49.38
2023-02-22T00:28:49.262Z,49.60
2023-02-22T00:31:16.973Z,48.85
2023-02-22T00:33:44.713Z,48.08
2023-02-22T00:36:13.671Z,48.40
2023-02-22T00:38:41.671Z,51.10
2023-02-22T00:41:09.365Z,42.88
2023-02-22T00:43:36.493Z,47.67
2023-02-22T00:46:03.759Z,42.63
2023-02-22T00:48:30.854Z,53.55
2023-02-22T00:50:57.808Z,48.30
2023-02-22T00:53:25.872Z,47.20
2023-02-22T00:55:53.269Z,55.13
2023-02-22T00:58:21.770Z,47.55
2023-02-22T01:00:48.971Z,50.50
2023-02-22T01:03:19.266Z,48.70
2023-02-22T01:05:47.075Z,57.60
2023-02-22T01:08:15.721Z,47.28
2023-02-22T01:10:43.482Z,50.60
2023-02-22T01:13:12.880Z,50.40
2023-02-22T01:15:42.808Z,52.08
2023-02-22T01:18:10.109Z,49.42
2023-02-22T01:20:37.312Z,49.30
2023-02-22T01:23:07.044Z,46.20
2023-02-22T01:25:35.302Z,51.30
2023-02-22T01:28:03.956Z,50.85
2023-02-22T01:30:34.511Z,48.50
2023-02-22T01:33:03.532Z,53.63
2023-02-22T01:35:33.214Z,54.30
2023-02-22T01:38:00.620Z,46.47
2023-02-22T01:40:33.808Z,54.53
2023-02-22T01:43:03.725Z,55.03
2023-02-22T01:45:30.782Z,50.08
2023-02-22T01:48:06.037Z,47.05
2023-02-22T01:50:37.661Z,54.83
2023-02-22T01:53:07.831Z,56.88
2023-02-22T01:55:35.688Z,52.67
2023-02-22T01:58:05.354Z,66.55
2023-02-22T02:00:33.096Z,64.65
2023-02-22T02:03:07.430Z,69.55
2023-02-22T02:05:35.972Z,69.18
2023-02-22T02:08:15.380Z,72.80
2023-02-22T02:10:43.058Z,76.20
2023-02-22T02:13:10.650Z,88.63
2023-02-22T02:15:37.879Z,83.57
2023-02-22T02:18:11.747Z,96.50
2023-02-22T02:20:41.941Z,100.13
2023-02-22T02:23:36.335Z,89.75
2023-02-22T02:26:34.266Z,95.43
2023-02-22T02:29:19.947Z,97.22
2023-02-22T02:32:19.135Z,102.43
2023-02-22T02:35:21.562Z,99.45
2023-02-22T02:38:09.445Z,102.15
2023-02-22T02:40:47.663Z,102.63
2023-02-22T02:43:26.508Z,101.30
2023-02-22T02:46:00.458Z,103.70
2023-02-22T02:48:30.789Z,105.90
2023-02-22T02:51:01.086Z,109.45
2023-02-22T02:53:39.125Z,116.47
2023-02-22T02:56:06.391Z,118.85
2023-02-22T02:58:33.470Z,105.85
2023-02-22T03:01:04.528Z,111.68
2023-02-22T03:03:58.442Z,109.53
2023-02-22T03:06:34.755Z,113.13
2023-02-22T03:09:19.919Z,121.75
2023-02-22T03:12:27.690Z,118.57
2023-02-22T03:15:01.420Z,126.13
2023-02-22T03:17:41.454Z,124.93
2023-02-22T03:20:34.789Z,132.90
2023-02-22T03:23:10.432Z,130.05
2023-02-22T03:25:46.475Z,132.70
2023-02-22T03:28:17.960Z,135.70
2023-02-22T03:30:54.813Z,137.07
2023-02-22T03:33:46.285Z,145.35
2023-02-22T03:36:25.353Z,138.35
2023-02-22T03:38:58.110Z,133.05
2023-02-22T03:41:27.165Z,150.02
2023-02-22T03:44:16.352Z,142.95
2023-02-22T03:46:46.815Z,146.73
2023-02-22T03:49:16.973Z,143.30
2023-02-22T03:51:44.418Z,154.88
2023-02-22T03:54:19.680Z,143.40
2023-02-22T03:56:57.042Z,148.60
2023-02-22T03:59:27.392Z,150.00
2023-02-22T04:01:55.997Z,149.90
2023-02-22T04:04:24.469Z,148.38
2023-02-22T04:06:52.539Z,143.02
2023-02-22T04:09:20.090Z,137.25
2023-02-22T04:11:47.580Z,152.02
2023-02-22T04:14:15.602Z,144.68
2023-02-22T04:16:42.927Z,152.65
2023-02-22T04:19:10.648Z,153.23
2023-02-22T04:21:38.935Z,148.57
2023-02-22T04:24:09.545Z,146.73
2023-02-22T04:26:37.482Z,157.20
2023-02-22T04:29:06.580Z,151.02
2023-02-22T04:31:38.215Z,143.20
2023-02-22T04:34:06.099Z,153.38
2023-02-22T04:36:36.146Z,137.85
2023-02-22T04:39:04.090Z,154.70
2023-02-22T04:41:31.573Z,154.98
2023-02-22T04:43:58.845Z,150.23
2023-02-22T04:46:27.134Z,150.43
2023-02-22T04:48:54.808Z,151.32
2023-02-22T04:51:25.349Z,158.73
2023-02-22T04:54:01.027Z,150.48
2023-02-22T04:56:28.840Z,156.02
2023-02-22T04:58:55.793Z,148.80
2023-02-22T05:01:23.592Z,152.73
2023-02-22T05:03:50.592Z,153.50
2023-02-22T05:06:18.820Z,153.95
2023-02-22T05:08:45.785Z,156.90
2023-02-22T05:11:12.854Z,161.40
2023-02-22T05:13:39.746Z,160.32
2023-02-22T05:16:07.054Z,151.90
2023-02-22T05:18:34.186Z,157.20
2023-02-22T05:21:01.257Z,142.18
2023-02-22T05:23:28.249Z,147.23
2023-02-22T05:25:55.232Z,153.13
2023-02-22T05:28:22.309Z,150.15
2023-02-22T05:30:49.353Z,151.98
2023-02-22T05:33:16.440Z,149.07
2023-02-22T05:35:43.444Z,153.48
2023-02-22T05:38:15.110Z,142.15
2023-02-22T05:40:43.228Z,157.70
2023-02-22T05:43:10.958Z,140.45
2023-02-22T05:45:38.022Z,155.13
2023-02-22T05:48:05.411Z,152.93
2023-02-22T05:50:33.329Z,152.77
2023-02-22T05:53:01.257Z,147.43
2023-02-22T05:55:28.284Z,151.95
2023-02-22T05:57:55.281Z,167.40
2023-02-22T06:00:28.864Z,157.82
2023-02-22T06:03:01.657Z,146.98
2023-02-22T06:05:29.961Z,154.35
2023-02-22T06:07:58.235Z,151.90
2023-02-22T06:10:26.014Z,155.70
2023-02-22T06:12:53.407Z,146.93
2023-02-22T06:15:22.592Z,143.65
2023-02-22T06:17:50.090Z,145.02
2023-02-22T06:20:19.582Z,155.40
2023-02-22T06:22:51.247Z,152.38
2023-02-22T06:25:20.713Z,152.02
2023-02-22T06:27:47.877Z,141.60
2023-02-22T06:30:16.322Z,149.43
2023-02-22T06:32:43.297Z,145.27
2023-02-22T06:35:10.626Z,144.93
2023-02-22T06:37:38.703Z,143.10
2023-02-22T06:40:06.003Z,153.18
2023-02-22T06:42:33.239Z,158.52
2023-02-22T06:45:00.490Z,141.43
2023-02-22T06:47:27.845Z,152.60
2023-02-22T06:49:58.506Z,139.27
2023-02-22T06:52:25.653Z,148.40
2023-02-22T06:54:52.776Z,153.38
2023-02-22T06:57:19.855Z,148.55
2023-02-22T06:59:46.788Z,153.38
2023-02-22T07:02:14.359Z,137.00
2023-02-22T07:04:43.423Z,146.25
2023-02-22T07:07:11.025Z,154.57
2023-02-22T07:09:37.956Z,152.95
2023-02-22T07:12:05.128Z,150.20
2023-02-22T07:14:32.199Z,143.05
2023-02-22T07:16:59.150Z,149.15
2023-02-22T07:19:26.091Z,137.00
2023-02-22T07:21:59.241Z,133.05
2023-02-22T07:24:28.531Z,137.13
2023-02-22T07:26:56.014Z,140.68
2023-02-22T07:29:22.952Z,144.38
2023-02-22T07:31:50.601Z,139.85
2023-02-22T07:34:17.692Z,139.48
2023-02-22T07:36:44.847Z,151.68
2023-02-22T07:39:11.760Z,142.50
2023-02-22T07:41:38.817Z,135.07
2023-02-22T07:44:14.724Z,132.73
2023-02-22T07:46:41.771Z,137.57
2023-02-22T07:49:08.759Z,144.30
2023-02-22T07:51:35.708Z,140.60
2023-02-22T07:54:02.669Z,137.50
2023-02-22T07:56:29.618Z,153.55
2023-02-22T07:58:56.712Z,134.55
2023-02-22T08:01:24.817Z,140.65
2023-02-22T08:03:52.743Z,145.63
2023-02-22T08:06:21.050Z,138.98
2023-02-22T08:08:48.082Z,145.85
2023-02-22T08:11:15.339Z,142.38
2023-02-22T08:13:42.432Z,132.25
2023-02-22T08:16:09.577Z,142.93
2023-02-22T08:18:38.396Z,136.23
2023-02-22T08:21:05.660Z,137.38
2023-02-22T08:23:32.975Z,132.23
2023-02-22T08:26:08.644Z,132.70
2023-02-22T08:28:35.820Z,142.23
2023-02-22T08:31:03.353Z,131.65
2023-02-22T08:33:30.461Z,140.45
2023-02-22T08:35:57.853Z,136.82
2023-02-22T08:38:27.649Z,135.10
2023-02-22T08:40:54.625Z,143.85
2023-02-22T08:43:22.676Z,139.68
2023-02-22T08:45:51.686Z,133.90
2023-02-22T08:48:19.878Z,133.30
2023-02-22T08:50:47.330Z,136.35
2023-02-22T08:53:16.522Z,140.27
2023-02-22T08:55:44.181Z,153.45
2023-02-22T08:58:12.164Z,144.15
2023-02-22T09:00:40.777Z,138.52
2023-02-22T09:03:15.888Z,126.00
2023-02-22T09:05:43.969Z,131.82
2023-02-22T09:08:11.207Z,131.25
2023-02-22T09:10:38.305Z,135.98
2023-02-22T09:13:05.731Z,133.52
2023-02-22T09:15:35.979Z,130.20
2023-02-22T09:18:03.878Z,129.80
2023-02-22T09:20:30.983Z,138.02
2023-02-22T09:22:58.167Z,142.05
2023-02-22T09:25:25.148Z,140.70
2023-02-22T09:27:53.634Z,134.70
2023-02-22T09:30:28.067Z,138.95
2023-02-22T09:32:58.090Z,136.80
2023-02-22T09:35:27.332Z,130.00
2023-02-22T09:37:56.651Z,146.88
2023-02-22T09:40:29.704Z,139.20
2023-02-22T09:43:07.291Z,130.95
2023-02-22T09:45:54.531Z,127.57
2023-02-22T09:48:22.809Z,129.65
2023-02-22T09:50:53.655Z,128.63
2023-02-22T09:53:41.711Z,128.95
2023-02-22T09:56:15.323Z,141.60
2023-02-22T09:58:46.510Z,134.73
2023-02-22T10:01:39.235Z,125.38
2023-02-22T10:04:19.643Z,128.65
2023-02-22T10:07:26.131Z,132.52
2023-02-22T10:09:56.581Z,123.38
2023-02-22T10:12:30.746Z,122.07
2023-02-22T10:15:17.486Z,132.50
2023-02-22T10:17:56.450Z,127.18
2023-02-22T10:20:54.036Z,122.35
2023-02-22T10:23:44.147Z,125.43
2023-02-22T10:26:16.647Z,132.65
2023-02-22T10:28:55.372Z,124.53
2023-02-22T10:31:28.359Z,118.18
2023-02-22T10:34:05.849Z,114.45
2023-02-22T10:36:34.435Z,125.63
2023-02-22T10:39:33.369Z,135.15
2023-02-22T10:42:09.796Z,121.10
2023-02-22T10:44:38.673Z,120.88
2023-02-22T10:47:08.278Z,121.50
2023-02-22T10:49:57.140Z,120.95
2023-02-22T10:52:30.766Z,124.43
2023-02-22T10:55:14.230Z,119.50
2023-02-22T10:57:46.159Z,118.32
2023-02-22T11:00:33.001Z,111.63
2023-02-22T11:03:02.469Z,123.78
2023-02-22T11:05:37.293Z,118.85
2023-02-22T11:08:24.461Z,116.73
2023-02-22T11:10:54.497Z,103.50
2023-02-22T11:13:30.978Z,103.47
2023-02-22T11:16:18.519Z,114.35
2023-02-22T11:18:47.244Z,114.53
2023-02-22T11:21:22.744Z,117.35
2023-02-22T11:24:00.977Z,103.47
2023-02-22T11:26:28.682Z,89.03
2023-02-22T11:28:56.739Z,103.45
2023-02-22T11:31:27.988Z,90.97
2023-02-22T11:33:58.543Z,90.60
2023-02-22T11:36:33.733Z,82.35
2023-02-22T11:39:01.049Z,93.80
2023-02-22T11:41:35.238Z,97.22
2023-02-22T11:44:26.546Z,100.43
2023-02-22T11:47:01.236Z,113.35
2023-02-22T11:49:41.732Z,94.35
2023-02-22T11:52:17.878Z,91.95
2023-02-22T11:54:58.491Z,99.20
2023-02-22T11:57:33.029Z,93.00
2023-02-22T12:00:24.591Z,96.28
2023-02-22T12:03:03.617Z,100.10
2023-02-22T12:05:59.640Z,95.30
2023-02-22T12:08:26.622Z,84.13
2023-02-22T12:11:18.271Z,82.78
2023-02-22T12:14:05.739Z,86.93
2023-02-22T12:17:10.383Z,76.18
2023-02-22T12:19:41.624Z,84.72
2023-02-22T12:22:15.301Z,87.30
2023-02-22T12:24:57.882Z,96.63
2023-02-22T12:27:38.710Z,85.70
2023-02-22T12:30:13.035Z,89.10
2023-02-22T12:32:43.815Z,81.90
2023-02-22T12:35:19.232Z,65.13
2023-02-22T12:37:58.452Z,61.88
2023-02-22T12:40:57.050Z,63.92
2023-02-22T12:43:35.194Z,70.40
2023-02-22T12:46:27.153Z,58.25
2023-02-22T12:49:20.888Z,57.88
2023-02-22T12:52:25.677Z,58.75
2023-02-22T12:55:04.421Z,60.38
2023-02-22T12:57:42.373Z,61.75
2023-02-22T13:00:17.812Z,62.13
2023-02-22T13:02:58.644Z,68.75
2023-02-22T13:05:26.154Z,59.17
2023-02-22T13:08:14.007Z,75.03
2023-02-22T13:10:43.759Z,75.43
2023-02-22T13:13:29.416Z,75.95
2023-02-22T13:15:57.421Z,80.13
2023-02-22T13:18:40.731Z,63.67
2023-02-22T13:21:24.130Z,65.28
2023-02-22T13:24:15.553Z,66.28
2023-02-22T13:27:15.060Z,81.93
2023-02-22T13:29:57.591Z,76.10
2023-02-22T13:32:46.987Z,57.60
2023-02-22T13:35:35.288Z,55.50
2023-02-22T13:38:31.268Z,62.72
2023-02-22T13:41:27.656Z,55.72
2023-02-22T13:44:22.401Z,65.90
2023-02-22T13:47:20.624Z,54.00
2023-02-22T13:50:20.529Z,56.38
2023-02-22T13:52:48.883Z,41.83
2023-02-22T13:55:20.629Z,54.17
2023-02-22T13:57:50.840Z,59.70
2023-02-22T14:00:23.154Z,53.90
2023-02-22T14:03:14.944Z,55.15
2023-02-22T14:05:42.402Z,51.80
2023-02-22T14:08:36.510Z,52.55
2023-02-22T14:11:06.024Z,48.35
2023-02-22T14:13:57.060Z,59.88
2023-02-22T14:16:26.356Z,54.08
2023-02-22T14:19:06.615Z,49.05
2023-02-22T14:21:37.391Z,48.97
2023-02-22T14:24:12.680Z,51.30
2023-02-22T14:26:40.446Z,53.60
2023-02-22T14:29:10.402Z,52.25
2023-02-22T14:31:52.088Z,47.67
2023-02-22T14:34:38.707Z,54.58
2023-02-22T14:37:11.964Z,45.50
2023-02-22T14:39:54.620Z,44.50
2023-02-22T14:42:27.093Z,46.75
2023-02-22T14:45:03.096Z,46.63
2023-02-22T14:48:01.028Z,45.80
2023-02-22T14:50:44.139Z,40.47
2023-02-22T14:53:26.055Z,46.97
2023-02-22T14:56:03.867Z,43.88
2023-02-22T14:58:40.573Z,41.20
2023-02-22T15:01:27.245Z,46.85
2023-02-22T15:04:07.283Z,40.65
2023-02-22T15:06:35.393Z,39.20
2023-02-22T15:09:30.110Z,40.72
2023-02-22T15:12:04.119Z,42.75
2023-02-22T15:14:39.204Z,37.33
2023-02-22T15:17:24.963Z,38.35
2023-02-22T15:19:52.700Z,39.70
2023-02-22T15:22:26.281Z,39.97
2023-02-22T15:25:00.988Z,36.67
2023-02-22T15:27:28.798Z,36.77
2023-02-22T15:30:04.812Z,36.00
2023-02-22T15:32:50.035Z,44.75
2023-02-22T15:35:30.373Z,41.80
2023-02-22T15:38:21.671Z,38.92
2023-02-22T15:40:59.679Z,34.63
2023-02-22T15:43:31.099Z,45.55
2023-02-22T15:45:59.550Z,40.85
2023-02-22T15:48:27.948Z,45.22
2023-02-22T15:51:09.378Z,42.03
2023-02-22T15:53:42.127Z,42.75
2023-02-22T15:56:18.731Z,39.53
2023-02-22T15:58:47.688Z,37.38
2023-02-22T16:01:19.095Z,34.92
2023-02-22T16:03:47.894Z,43.25
2023-02-22T16:06:28.654Z,39.00
2023-02-22T16:08:58.889Z,49.42
2023-02-22T16:11:43.840Z,42.13
2023-02-22T16:14:30.238Z,36.75
2023-02-22T16:17:32.445Z,42.70
2023-02-22T16:20:22.291Z,38.42
2023-02-22T16:22:50.373Z,46.97
2023-02-22T16:25:21.529Z,40.95
2023-02-22T16:27:55.857Z,44.58
2023-02-22T16:30:36.804Z,40.15
2023-02-22T16:33:16.502Z,40.63
2023-02-22T16:35:51.986Z,45.15
2023-02-22T16:40:55.320Z,37.28
2023-02-22T16:43:25.304Z,37.00
2023-02-22T16:45:53.125Z,39.00
2023-02-22T16:48:23.098Z,35.35
2023-02-22T16:50:52.172Z,39.85
2023-02-22T16:53:22.991Z,41.55
2023-02-22T16:55:57.435Z,36.08
2023-02-22T16:58:29.321Z,37.97
2023-02-22T17:00:57.429Z,42.35
2023-02-22T17:03:26.150Z,42.67
2023-02-22T17:05:53.632Z,47.97
2023-02-22T17:08:20.862Z,53.75
2023-02-22T17:10:51.508Z,48.95
2023-02-22T17:13:26.828Z,50.92
2023-02-22T17:18:23.891Z,51.92
2023-02-22T17:20:55.023Z,48.58
2023-02-22T17:23:24.305Z,55.17
2023-02-22T17:26:04.878Z,47.53
2023-02-22T17:28:31.948Z,54.10
2023-02-22T17:31:02.882Z,55.60
2023-02-22T17:33:33.369Z,51.78
2023-02-22T17:36:02.373Z,53.83
2023-02-22T17:38:30.517Z,51.78
2023-02-22T17:40:59.330Z,47.55
2023-02-22T17:43:28.005Z,49.70
2023-02-22T17:45:56.023Z,50.10
2023-02-22T17:48:24.343Z,51.13
2023-02-22T17:50:52.381Z,47.92
2023-02-22T17:53:22.814Z,54.83
2023-02-22T17:55:50.231Z,55.20
2023-02-22T17:58:18.134Z,47.92
2023-02-22T18:00:49.230Z,51.97
2023-02-22T18:03:21.700Z,47.50
2023-02-22T18:05:50.962Z,53.75
2023-02-22T18:08:18.664Z,45.78
2023-02-22T18:10:46.409Z,49.78
2023-02-22T18:13:17.900Z,49.13
2023-02-22T18:15:46.054Z,52.85
2023-02-22T18:18:13.589Z,46.92
2023-02-22T18:20:43.971Z,48.65
2023-02-22T18:23:16.633Z,50.13
2023-02-22T18:26:07.759Z,50.40
2023-02-22T18:28:36.842Z,48.30
2023-02-22T18:31:15.291Z,52.72
2023-02-22T18:33:47.237Z,51.58
2023-02-22T18:36:15.901Z,50.63
2023-02-22T18:38:43.766Z,47.08
2023-02-22T18:41:16.094Z,52.92
2023-02-22T18:43:43.517Z,53.10
2023-02-22T18:46:19.390Z,57.53
2023-02-22T18:48:48.234Z,55.08
2023-02-22T18:51:17.491Z,52.47
2023-02-22T18:53:47.569Z,49.88
2023-02-22T18:56:21.694Z,56.65
2023-02-22T18:58:57.152Z,56.58
2023-02-22T19:01:24.343Z,51.72
2023-02-22T19:03:51.944Z,55.63
2023-02-22T19:06:22.593Z,49.67
2023-02-22T19:08:50.970Z,49.80
2023-02-22T19:11:21.901Z,58.28
2023-02-22T19:13:52.218Z,53.80
2023-02-22T19:16:21.527Z,52.85
2023-02-22T19:18:52.324Z,55.63
2023-02-22T19:21:20.180Z,57.83
2023-02-22T19:23:48.266Z,54.30
2023-02-22T19:26:25.870Z,51.63
2023-02-22T19:28:55.160Z,59.67
2023-02-22T19:31:31.002Z,54.95
2023-02-22T19:34:02.641Z,58.17
2023-02-22T19:36:30.160Z,57.58
2023-02-22T19:39:02.149Z,52.80
2023-02-22T19:41:29.471Z,58.90
2023-02-22T19:43:57.130Z,52.90
2023-02-22T19:46:27.245Z,51.85
2023-02-22T19:48:57.526Z,62.17
2023-02-22T19:51:27.938Z,58.28
2023-02-22T19:54:00.466Z,53.72
2023-02-22T19:56:27.564Z,48.17
2023-02-22T19:58:56.665Z,57.85
2023-02-22T20:01:34.081Z,53.42
2023-02-22T20:04:04.014Z,51.97
2023-02-22T20:06:35.000Z,56.40
2023-02-22T20:09:02.894Z,57.20
2023-02-22T20:11:30.213Z,54.58
2023-02-22T20:13:57.241Z,58.33
2023-02-22T20:16:24.452Z,56.30
2023-02-22T20:18:51.700Z,54.92
2023-02-22T20:21:20.659Z,54.67
2023-02-22T20:23:48.254Z,55.80
2023-02-22T20:26:22.416Z,53.50
2023-02-22T20:28:50.115Z,56.13
2023-02-22T20:31:20.432Z,50.30
2023-02-22T20:33:49.579Z,60.35
2023-02-22T20:36:18.529Z,54.05
2023-02-22T20:38:46.122Z,63.33
2023-02-22T20:41:16.841Z,52.60
2023-02-22T20:43:44.269Z,54.78
2023-02-22T20:46:11.310Z,50.10
2023-02-22T20:48:38.908Z,53.42
2023-02-22T20:51:11.216Z,54.97
2023-02-22T20:53:42.109Z,51.78
2023-02-22T20:56:14.086Z,57.00
2023-02-22T20:58:41.911Z,50.25
2023-02-22T21:01:13.915Z,54.80
2023-02-22T21:03:45.357Z,54.47
2023-02-22T21:06:17.626Z,60.13
2023-02-22T21:08:49.247Z,57.42
2023-02-22T21:11:18.463Z,64.57
2023-02-22T21:13:46.203Z,55.92
2023-02-22T21:16:19.960Z,51.65
2023-02-22T21:18:49.434Z,54.45
2023-02-22T21:21:16.961Z,58.55
2023-02-22T21:23:52.526Z,57.83
2023-02-22T21:26:27.384Z,51.58
2023-02-22T21:28:57.379Z,47.37
2023-02-22T21:31:25.396Z,47.72
2023-02-22T21:33:55.313Z,52.63
2023-02-22T21:36:25.500Z,58.80
2023-02-22T21:39:08.271Z,48.63
2023-02-22T21:41:39.154Z,49.42
2023-02-22T21:44:07.515Z,50.42
2023-02-22T21:46:34.441Z,49.17
2023-02-22T21:49:02.227Z,52.22
2023-02-22T21:51:32.937Z,55.80
2023-02-22T21:54:04.803Z,49.25
2023-02-22T21:56:40.464Z,50.45
2023-02-22T21:59:14.167Z,49.33
2023-02-22T22:01:48.196Z,46.70
2023-02-22T22:04:31.632Z,46.00
2023-02-22T22:07:02.179Z,48.95
2023-02-22T22:09:35.776Z,52.92
2023-02-22T22:12:06.744Z,51.20
2023-02-22T22:14:35.472Z,48.03
2023-02-22T22:17:05.569Z,53.03
2023-02-22T22:19:38.388Z,52.22
2023-02-22T22:22:05.322Z,44.22
2023-02-22T22:24:34.355Z,45.90
2023-02-22T22:27:03.891Z,50.00
2023-02-22T22:29:34.234Z,46.70
2023-02-22T22:32:02.019Z,48.40
2023-02-22T22:34:34.019Z,48.03
2023-02-22T22:37:01.121Z,49.38
2023-02-22T22:39:28.489Z,56.65
2023-02-22T22:41:55.567Z,50.50
2023-02-22T22:44:22.985Z,52.63
2023-02-22T22:46:53.419Z,50.63
2023-02-22T22:49:20.658Z,50.38
2023-02-22T22:51:47.695Z,45.45
2023-02-22T22:54:14.662Z,47.67
2023-02-22T22:56:41.618Z,48.55
2023-02-22T22:59:10.545Z,49.97
2023-02-22T23:01:40.654Z,52.35
2023-02-22T23:04:11.561Z,49.50
2023-02-22T23:06:41.245Z,51.70
2023-02-22T23:09:31.626Z,53.33
2023-02-22T23:12:16.575Z,52.47
2023-02-22T23:14:44.965Z,55.70
2023-02-22T23:17:26.883Z,52.78
2023-02-22T23:19:53.872Z,59.30
2023-02-22T23:22:21.283Z,56.42
2023-02-22T23:24:48.466Z,50.42
2023-02-22T23:27:15.498Z,57.75
2023-02-22T23:29:46.401Z,55.72
2023-02-22T23:32:14.216Z,63.45
2023-02-22T23:34:41.577Z,55.75
2023-02-22T23:37:10.620Z,64.53
2023-02-22T23:39:38.560Z,61.15
2023-02-22T23:42:08.711Z,62.00
2023-02-22T23:44:35.770Z,63.05
2023-02-22T23:47:03.875Z,62.67
2023-02-22T23:49:35.807Z,60.85
2023-02-22T23:52:07.453Z,61.42
2023-02-22T23:54:36.490Z,62.17
2023-02-22T23:57:05.523Z,73.55
2023-02-22T23:59:33.559Z,68.47
